sensor_id;sensor_type;location;lat;lon;timestamp;pressure;altitude;pressure_sealevel;temperature;humidity
33155;BME280;19511;42.682;23.332;2023-04-23T00:02:12;95126.94;;;7.97;100.00
33155;BME280;19511;42.682;23.332;2023-04-23T00:04:48;95124.56;;;8.07;100.00
33155;BME280;19511;42.682;23.332;2023-04-23T00:07:14;95120.63;;;8.08;100.00
33155;BME280;19511;42.682;23.332;2023-04-23T00:09:42;95099.78;;;7.96;100.00
33155;BME280;19511;42.682;23.332;2023-04-23T00:12:08;95123.78;;;8.13;100.00
33155;BME280;19511;42.682;23.332;2023-04-23T00:14:34;95117.09;;;8.11;100.00
33155;BME280;19511;42.682;23.332;2023-04-23T00:16:59;95117.88;;;8.11;100.00
33155;BME280;19511;42.682;23.332;2023-04-23T00:19:25;95116.72;;;8.05;100.00
33155;BME280;19511;42.682;23.332;2023-04-23T00:21:50;95116.31;;;7.81;100.00
33155;BME280;19511;42.682;23.332;2023-04-23T00:24:16;95125.34;;;7.64;100.00
33155;BME280;19511;42.682;23.332;2023-04-23T00:26:41;95121.81;;;7.60;100.00
33155;BME280;19511;42.682;23.332;2023-04-23T00:29:07;95111.56;;;7.60;100.00
33155;BME280;19511;42.682;23.332;2023-04-23T00:31:32;95124.94;;;7.65;100.00
33155;BME280;19511;42.682;23.332;2023-04-23T00:33:58;95043.09;;;7.01;100.00
33155;BME280;19511;42.682;23.332;2023-04-23T00:36:23;95123.75;;;7.48;100.00
33155;BME280;19511;42.682;23.332;2023-04-23T00:38:50;95116.28;;;7.45;100.00
33155;BME280;19511;42.682;23.332;2023-04-23T00:41:16;95120.97;;;7.34;100.00
33155;BME280;19511;42.682;23.332;2023-04-23T00:43:42;95112.72;;;7.34;100.00
33155;BME280;19511;42.682;23.332;2023-04-23T00:46:08;95119.41;;;7.40;100.00
33155;BME280;19511;42.682;23.332;2023-04-23T00:48:35;95114.31;;;7.49;100.00
33155;BME280;19511;42.682;23.332;2023-04-23T00:51:05;95117.47;;;7.48;100.00
33155;BME280;19511;42.682;23.332;2023-04-23T00:53:31;95122.97;;;7.44;100.00
33155;BME280;19511;42.682;23.332;2023-04-23T00:55:57;95103.66;;;7.30;100.00
33155;BME280;19511;42.682;23.332;2023-04-23T00:58:24;95123.75;;;7.34;100.00
33155;BME280;19511;42.682;23.332;2023-04-23T01:00:50;95133.56;;;7.31;100.00
33155;BME280;19511;42.682;23.332;2023-04-23T01:03:16;95039.44;;;6.61;100.00
33155;BME280;19511;42.682;23.332;2023-04-23T01:05:43;95030.78;;;6.51;100.00
33155;BME280;19511;42.682;23.332;2023-04-23T01:08:14;95034.72;;;6.54;100.00
33155;BME280;19511;42.682;23.332;2023-04-23T01:10:42;95100.03;;;6.90;100.00
33155;BME280;19511;42.682;23.332;2023-04-23T01:13:08;95129.53;;;7.00;100.00
33155;BME280;19511;42.682;23.332;2023-04-23T01:15:33;95127.91;;;6.92;100.00
33155;BME280;19511;42.682;23.332;2023-04-23T01:17:59;95133.75;;;6.83;100.00
33155;BME280;19511;42.682;23.332;2023-04-23T01:20:24;95134.97;;;6.82;100.00
33155;BME280;19511;42.682;23.332;2023-04-23T01:22:50;95126.69;;;6.85;100.00
33155;BME280;19511;42.682;23.332;2023-04-23T01:25:16;95120.00;;;6.72;100.00
33155;BME280;19511;42.682;23.332;2023-04-23T01:27:42;95117.63;;;6.70;100.00
33155;BME280;19511;42.682;23.332;2023-04-23T01:30:08;95119.56;;;6.66;100.00
33155;BME280;19511;42.682;23.332;2023-04-23T01:32:34;95130.19;;;6.75;100.00
33155;BME280;19511;42.682;23.332;2023-04-23T01:35:00;95136.47;;;6.72;100.00
33155;BME280;19511;42.682;23.332;2023-04-23T01:37:26;95129.84;;;6.77;100.00
33155;BME280;19511;42.682;23.332;2023-04-23T01:39:52;95047.09;;;6.15;100.00
33155;BME280;19511;42.682;23.332;2023-04-23T01:42:18;95035.66;;;6.06;100.00
33155;BME280;19511;42.682;23.332;2023-04-23T01:44:44;95143.16;;;6.71;100.00
33155;BME280;19511;42.682;23.332;2023-04-23T01:47:09;95120.25;;;6.52;100.00
33155;BME280;19511;42.682;23.332;2023-04-23T01:49:35;95147.03;;;6.66;100.00
33155;BME280;19511;42.682;23.332;2023-04-23T01:52:00;95129.31;;;6.53;100.00
33155;BME280;19511;42.682;23.332;2023-04-23T01:54:26;95139.53;;;6.56;100.00
33155;BME280;19511;42.682;23.332;2023-04-23T01:56:51;95143.03;;;6.49;100.00
33155;BME280;19511;42.682;23.332;2023-04-23T01:59:20;95132.31;;;6.33;100.00
33155;BME280;19511;42.682;23.332;2023-04-23T02:01:46;95141.75;;;6.36;100.00
33155;BME280;19511;42.682;23.332;2023-04-23T02:04:13;95140.56;;;6.33;100.00
33155;BME280;19511;42.682;23.332;2023-04-23T02:06:40;95133.94;;;6.38;100.00
33155;BME280;19511;42.682;23.332;2023-04-23T02:09:06;95141.41;;;6.41;100.00
33155;BME280;19511;42.682;23.332;2023-04-23T02:11:32;95137.88;;;6.41;100.00
33155;BME280;19511;42.682;23.332;2023-04-23T02:13:58;95146.53;;;6.43;100.00
33155;BME280;19511;42.682;23.332;2023-04-23T02:16:23;95145.34;;;6.40;100.00
33155;BME280;19511;42.682;23.332;2023-04-23T02:18:49;95136.28;;;6.36;100.00
33155;BME280;19511;42.682;23.332;2023-04-23T02:21:14;95054.25;;;5.71;100.00
33155;BME280;19511;42.682;23.332;2023-04-23T02:23:40;95142.94;;;6.31;100.00
33155;BME280;19511;42.682;23.332;2023-04-23T02:26:05;95130.72;;;6.25;100.00
33155;BME280;19511;42.682;23.332;2023-04-23T02:28:32;95138.22;;;6.32;100.00
33155;BME280;19511;42.682;23.332;2023-04-23T02:30:57;95134.59;;;6.20;100.00
33155;BME280;19511;42.682;23.332;2023-04-23T02:33:23;95149.59;;;6.30;100.00
33155;BME280;19511;42.682;23.332;2023-04-23T02:35:49;95148.41;;;6.28;100.00
33155;BME280;19511;42.682;23.332;2023-04-23T02:38:15;95149.56;;;6.27;100.00
33155;BME280;19511;42.682;23.332;2023-04-23T02:40:40;95145.59;;;6.20;100.00
33155;BME280;19511;42.682;23.332;2023-04-23T02:43:06;95151.88;;;6.21;100.00
33155;BME280;19511;42.682;23.332;2023-04-23T02:45:35;95150.63;;;6.11;100.00
33155;BME280;19511;42.682;23.332;2023-04-23T02:48:00;95143.56;;;6.10;100.00
33155;BME280;19511;42.682;23.332;2023-04-23T02:50:25;95150.28;;;6.16;100.00
33155;BME280;19511;42.682;23.332;2023-04-23T02:52:51;95149.00;;;6.03;100.00
33155;BME280;19511;42.682;23.332;2023-04-23T02:55:16;95154.09;;;6.01;100.00
33155;BME280;19511;42.682;23.332;2023-04-23T02:57:42;95150.09;;;5.95;100.00
33155;BME280;19511;42.682;23.332;2023-04-23T03:00:09;95134.34;;;5.92;100.00
33155;BME280;19511;42.682;23.332;2023-04-23T03:02:36;95144.97;;;5.93;100.00
33155;BME280;19511;42.682;23.332;2023-04-23T03:05:02;95156.03;;;6.00;100.00
33155;BME280;19511;42.682;23.332;2023-04-23T03:07:28;95154.00;;;5.94;100.00
33155;BME280;19511;42.682;23.332;2023-04-23T03:09:53;95157.06;;;5.85;100.00
33155;BME280;19511;42.682;23.332;2023-04-23T03:12:19;95090.06;;;5.41;100.00
33155;BME280;19511;42.682;23.332;2023-04-23T03:14:44;95145.25;;;5.81;100.00
33155;BME280;19511;42.682;23.332;2023-04-23T03:17:09;95089.28;;;5.44;100.00
33155;BME280;19511;42.682;23.332;2023-04-23T03:19:35;95067.56;;;5.25;100.00
33155;BME280;19511;42.682;23.332;2023-04-23T03:22:00;95171.63;;;5.93;100.00
33155;BME280;19511;42.682;23.332;2023-04-23T03:24:31;95158.22;;;5.84;100.00
33155;BME280;19511;42.682;23.332;2023-04-23T03:26:56;95111.69;;;5.53;100.00
33155;BME280;19511;42.682;23.332;2023-04-23T03:29:22;95162.56;;;5.85;100.00
33155;BME280;19511;42.682;23.332;2023-04-23T03:31:47;95162.50;;;5.81;100.00
33155;BME280;19511;42.682;23.332;2023-04-23T03:34:13;95067.03;;;5.08;100.00
33155;BME280;19511;42.682;23.332;2023-04-23T03:36:39;95165.13;;;5.67;100.00
33155;BME280;19511;42.682;23.332;2023-04-23T03:39:04;95153.75;;;5.65;100.00
33155;BME280;19511;42.682;23.332;2023-04-23T03:41:30;95164.72;;;5.65;100.00
33155;BME280;19511;42.682;23.332;2023-04-23T03:43:55;95159.97;;;5.58;100.00
33155;BME280;19511;42.682;23.332;2023-04-23T03:46:21;95172.94;;;5.65;100.00
33155;BME280;19511;42.682;23.332;2023-04-23T03:48:46;95170.97;;;5.62;100.00
33155;BME280;19511;42.682;23.332;2023-04-23T03:51:12;95177.25;;;5.62;100.00
33155;BME280;19511;42.682;23.332;2023-04-23T03:53:37;95181.59;;;5.67;100.00
33155;BME280;19511;42.682;23.332;2023-04-23T03:56:03;95175.13;;;5.86;100.00
33155;BME280;19511;42.682;23.332;2023-04-23T03:58:28;95188.63;;;6.05;100.00
33155;BME280;19511;42.682;23.332;2023-04-23T04:00:54;95177.72;;;6.13;100.00
33155;BME280;19511;42.682;23.332;2023-04-23T04:03:20;95088.69;;;5.65;100.00
33155;BME280;19511;42.682;23.332;2023-04-23T04:05:45;95180.63;;;6.38;100.00
33155;BME280;19511;42.682;23.332;2023-04-23T04:08:11;95172.41;;;6.38;100.00
33155;BME280;19511;42.682;23.332;2023-04-23T04:10:36;95088.81;;;5.83;100.00
33155;BME280;19511;42.682;23.332;2023-04-23T04:13:02;95185.44;;;6.52;100.00
33155;BME280;19511;42.682;23.332;2023-04-23T04:15:27;95189.41;;;6.58;100.00
33155;BME280;19511;42.682;23.332;2023-04-23T04:17:55;95176.06;;;6.57;100.00
33155;BME280;19511;42.682;23.332;2023-04-23T04:20:25;95197.34;;;6.74;100.00
33155;BME280;19511;42.682;23.332;2023-04-23T04:22:53;95186.72;;;6.69;100.00
33155;BME280;19511;42.682;23.332;2023-04-23T04:25:18;95188.28;;;6.63;100.00
33155;BME280;19511;42.682;23.332;2023-04-23T04:27:46;95194.63;;;6.81;100.00
33155;BME280;19511;42.682;23.332;2023-04-23T04:30:12;95167.84;;;6.60;100.00
33155;BME280;19511;42.682;23.332;2023-04-23T04:32:38;95203.75;;;6.96;100.00
33155;BME280;19511;42.682;23.332;2023-04-23T04:35:05;95198.66;;;6.98;100.00
33155;BME280;19511;42.682;23.332;2023-04-23T04:37:34;95120.63;;;6.47;100.00
33155;BME280;19511;42.682;23.332;2023-04-23T04:39:59;95197.56;;;7.14;100.00
33155;BME280;19511;42.682;23.332;2023-04-23T04:42:26;95199.88;;;7.12;100.00
33155;BME280;19511;42.682;23.332;2023-04-23T04:44:51;95191.59;;;7.01;100.00
33155;BME280;19511;42.682;23.332;2023-04-23T04:47:17;95186.50;;;7.03;100.00
33155;BME280;19511;42.682;23.332;2023-04-23T04:49:43;95198.25;;;6.96;100.00
33155;BME280;19511;42.682;23.332;2023-04-23T04:52:09;95188.41;;;6.92;100.00
33155;BME280;19511;42.682;23.332;2023-04-23T04:54:35;95200.69;;;7.09;100.00
33155;BME280;19511;42.682;23.332;2023-04-23T04:57:00;95129.03;;;6.76;100.00
33155;BME280;19511;42.682;23.332;2023-04-23T04:59:26;95134.25;;;7.03;100.00
33155;BME280;19511;42.682;23.332;2023-04-23T05:01:52;95219.34;;;7.70;100.00
33155;BME280;19511;42.682;23.332;2023-04-23T05:04:18;95215.81;;;7.69;100.00
33155;BME280;19511;42.682;23.332;2023-04-23T05:06:43;95215.41;;;7.71;100.00
33155;BME280;19511;42.682;23.332;2023-04-23T05:09:09;95200.09;;;7.77;100.00
33155;BME280;19511;42.682;23.332;2023-04-23T05:11:35;95208.78;;;8.04;100.00
33155;BME280;19511;42.682;23.332;2023-04-23T05:14:00;95204.84;;;8.12;100.00
33155;BME280;19511;42.682;23.332;2023-04-23T05:16:26;95208.41;;;8.13;100.00
33155;BME280;19511;42.682;23.332;2023-04-23T05:18:51;95120.22;;;7.62;100.00
33155;BME280;19511;42.682;23.332;2023-04-23T05:21:17;95203.69;;;8.17;100.00
33155;BME280;19511;42.682;23.332;2023-04-23T05:23:43;95203.69;;;8.17;100.00
33155;BME280;19511;42.682;23.332;2023-04-23T05:26:09;95205.66;;;8.31;100.00
33155;BME280;19511;42.682;23.332;2023-04-23T05:28:35;95196.59;;;8.27;100.00
33155;BME280;19511;42.682;23.332;2023-04-23T05:31:00;95192.66;;;8.17;100.00
33155;BME280;19511;42.682;23.332;2023-04-23T05:33:26;95124.56;;;7.81;100.00
33155;BME280;19511;42.682;23.332;2023-04-23T05:35:52;95201.31;;;8.41;100.00
33155;BME280;19511;42.682;23.332;2023-04-23T05:38:19;95207.63;;;8.48;100.00
33155;BME280;19511;42.682;23.332;2023-04-23T05:40:44;95210.78;;;8.58;100.00
33155;BME280;19511;42.682;23.332;2023-04-23T05:43:10;95224.94;;;8.71;100.00
33155;BME280;19511;42.682;23.332;2023-04-23T05:45:36;95202.09;;;8.66;100.00
33155;BME280;19511;42.682;23.332;2023-04-23T05:48:01;95204.41;;;8.86;100.00
33155;BME280;19511;42.682;23.332;2023-04-23T05:50:27;95198.16;;;8.75;100.00
33155;BME280;19511;42.682;23.332;2023-04-23T05:52:52;95206.41;;;8.86;100.00
33155;BME280;19511;42.682;23.332;2023-04-23T05:55:19;95209.16;;;8.93;100.00
33155;BME280;19511;42.682;23.332;2023-04-23T05:57:49;95196.53;;;8.85;100.00
33155;BME280;19511;42.682;23.332;2023-04-23T06:00:14;95124.53;;;8.36;100.00
33155;BME280;19511;42.682;23.332;2023-04-23T06:02:41;95124.16;;;8.41;100.00
33155;BME280;19511;42.682;23.332;2023-04-23T06:05:07;95122.94;;;8.45;100.00
33155;BME280;19511;42.682;23.332;2023-04-23T06:07:33;95209.09;;;9.07;100.00
33155;BME280;19511;42.682;23.332;2023-04-23T06:09:59;95112.69;;;8.64;100.00
33155;BME280;19511;42.682;23.332;2023-04-23T06:12:24;95206.59;;;9.38;100.00
33155;BME280;19511;42.682;23.332;2023-04-23T06:14:52;95196.84;;;9.15;100.00
33155;BME280;19511;42.682;23.332;2023-04-23T06:17:17;95207.50;;;9.13;100.00
33155;BME280;19511;42.682;23.332;2023-04-23T06:19:43;95210.19;;;9.31;100.00
33155;BME280;19511;42.682;23.332;2023-04-23T06:22:08;95206.59;;;9.42;100.00
33155;BME280;19511;42.682;23.332;2023-04-23T06:24:34;95197.47;;;9.52;100.00
33155;BME280;19511;42.682;23.332;2023-04-23T06:26:59;95178.19;;;9.48;100.00
33155;BME280;19511;42.682;23.332;2023-04-23T06:29:27;95215.53;;;9.71;100.00
33155;BME280;19511;42.682;23.332;2023-04-23T06:31:56;95204.88;;;9.73;100.00
33155;BME280;19511;42.682;23.332;2023-04-23T06:34:25;95111.19;;;9.37;100.00
33155;BME280;19511;42.682;23.332;2023-04-23T06:36:50;95204.66;;;10.09;100.00
33155;BME280;19511;42.682;23.332;2023-04-23T06:39:16;95194.75;;;10.12;100.00
33155;BME280;19511;42.682;23.332;2023-04-23T06:41:42;95192.38;;;10.10;100.00
33155;BME280;19511;42.682;23.332;2023-04-23T06:44:07;95204.53;;;10.24;100.00
33155;BME280;19511;42.682;23.332;2023-04-23T06:46:33;95211.22;;;10.26;100.00
33155;BME280;19511;42.682;23.332;2023-04-23T06:48:58;95192.56;;;10.45;100.00
33155;BME280;19511;42.682;23.332;2023-04-23T06:51:24;95204.72;;;10.51;100.00
33155;BME280;19511;42.682;23.332;2023-04-23T06:53:51;95207.84;;;10.57;100.00
33155;BME280;19511;42.682;23.332;2023-04-23T06:56:16;95197.09;;;10.66;100.00
33155;BME280;19511;42.682;23.332;2023-04-23T06:58:42;95110.97;;;10.22;100.00
33155;BME280;19511;42.682;23.332;2023-04-23T07:01:07;95196.56;;;10.82;100.00
33155;BME280;19511;42.682;23.332;2023-04-23T07:03:33;95141.72;;;10.70;100.00
33155;BME280;19511;42.682;23.332;2023-04-23T07:05:58;95196.94;;;11.19;100.00
33155;BME280;19511;42.682;23.332;2023-04-23T07:08:24;95203.53;;;11.28;100.00
33155;BME280;19511;42.682;23.332;2023-04-23T07:10:52;95197.97;;;11.32;100.00
33155;BME280;19511;42.682;23.332;2023-04-23T07:13:18;95178.13;;;11.37;100.00
33155;BME280;19511;42.682;23.332;2023-04-23T07:15:43;95153.34;;;11.26;100.00
33155;BME280;19511;42.682;23.332;2023-04-23T07:18:09;95197.53;;;11.68;100.00
33155;BME280;19511;42.682;23.332;2023-04-23T07:20:35;95191.16;;;11.71;100.00
33155;BME280;19511;42.682;23.332;2023-04-23T07:23:00;95099.22;;;11.22;100.00
33155;BME280;19511;42.682;23.332;2023-04-23T07:25:30;95172.72;;;11.88;100.00
33155;BME280;19511;42.682;23.332;2023-04-23T07:27:56;95088.69;;;11.40;100.00
33155;BME280;19511;42.682;23.332;2023-04-23T07:30:23;95103.94;;;11.52;100.00
33155;BME280;19511;42.682;23.332;2023-04-23T07:32:49;95160.06;;;11.87;100.00
33155;BME280;19511;42.682;23.332;2023-04-23T07:35:14;95170.94;;;12.02;100.00
33155;BME280;19511;42.682;23.332;2023-04-23T07:37:40;95181.03;;;12.16;100.00
33155;BME280;19511;42.682;23.332;2023-04-23T07:40:06;95176.53;;;12.25;100.00
33155;BME280;19511;42.682;23.332;2023-04-23T07:42:32;95180.00;;;12.57;100.00
33155;BME280;19511;42.682;23.332;2023-04-23T07:45:06;95167.97;;;12.64;100.00
33155;BME280;19511;42.682;23.332;2023-04-23T07:47:31;95059.91;;;12.13;100.00
33155;BME280;19511;42.682;23.332;2023-04-23T07:49:57;95170.81;;;13.04;100.00
33155;BME280;19511;42.682;23.332;2023-04-23T07:52:22;95091.75;;;12.68;100.00
33155;BME280;19511;42.682;23.332;2023-04-23T07:54:48;95116.13;;;13.01;100.00
33155;BME280;19511;42.682;23.332;2023-04-23T07:57:14;95157.72;;;13.25;100.00
33155;BME280;19511;42.682;23.332;2023-04-23T07:59:40;95096.75;;;12.97;100.00
33155;BME280;19511;42.682;23.332;2023-04-23T08:02:05;95178.44;;;13.60;100.00
33155;BME280;19511;42.682;23.332;2023-04-23T08:04:31;95055.63;;;12.92;100.00
33155;BME280;19511;42.682;23.332;2023-04-23T08:06:56;95168.72;;;13.68;100.00
33155;BME280;19511;42.682;23.332;2023-04-23T08:09:23;95067.47;;;13.13;100.00
33155;BME280;19511;42.682;23.332;2023-04-23T08:11:48;95089.19;;;13.38;100.00
33155;BME280;19511;42.682;23.332;2023-04-23T08:14:13;95171.63;;;13.81;100.00
33155;BME280;19511;42.682;23.332;2023-04-23T08:16:39;95043.88;;;12.84;100.00
33155;BME280;19511;42.682;23.332;2023-04-23T08:19:05;95162.66;;;13.74;100.00
33155;BME280;19511;42.682;23.332;2023-04-23T08:21:31;95161.34;;;13.98;100.00
33155;BME280;19511;42.682;23.332;2023-04-23T08:23:57;95164.81;;;14.35;100.00
33155;BME280;19511;42.682;23.332;2023-04-23T08:26:22;95144.38;;;14.42;100.00
33155;BME280;19511;42.682;23.332;2023-04-23T08:28:48;95160.56;;;14.47;100.00
33155;BME280;19511;42.682;23.332;2023-04-23T08:31:13;95163.53;;;14.57;100.00
33155;BME280;19511;42.682;23.332;2023-04-23T08:33:39;95155.09;;;14.77;100.00
33155;BME280;19511;42.682;23.332;2023-04-23T08:36:05;95147.94;;;14.59;100.00
33155;BME280;19511;42.682;23.332;2023-04-23T08:38:30;95153.53;;;14.76;100.00
33155;BME280;19511;42.682;23.332;2023-04-23T08:40:57;95080.88;;;14.53;100.00
33155;BME280;19511;42.682;23.332;2023-04-23T08:43:31;95146.97;;;15.12;100.00
33155;BME280;19511;42.682;23.332;2023-04-23T08:46:02;95150.38;;;15.32;100.00
33155;BME280;19511;42.682;23.332;2023-04-23T08:48:29;95140.13;;;15.29;100.00
33155;BME280;19511;42.682;23.332;2023-04-23T08:50:56;95044.69;;;14.53;100.00
33155;BME280;19511;42.682;23.332;2023-04-23T08:53:26;95087.19;;;14.87;100.00
33155;BME280;19511;42.682;23.332;2023-04-23T08:55:59;95137.22;;;15.20;100.00
33155;BME280;19511;42.682;23.332;2023-04-23T08:58:26;95126.91;;;15.04;100.00
33155;BME280;19511;42.682;23.332;2023-04-23T09:00:52;95062.66;;;14.52;100.00
33155;BME280;19511;42.682;23.332;2023-04-23T09:03:19;95144.69;;;14.94;100.00
33155;BME280;19511;42.682;23.332;2023-04-23T09:05:46;95138.34;;;14.93;100.00
33155;BME280;19511;42.682;23.332;2023-04-23T09:08:11;95118.91;;;14.77;100.00
33155;BME280;19511;42.682;23.332;2023-04-23T09:10:39;95140.09;;;14.87;100.00
33155;BME280;19511;42.682;23.332;2023-04-23T09:13:06;95116.69;;;14.84;100.00
33155;BME280;19511;42.682;23.332;2023-04-23T09:15:32;95125.59;;;15.09;100.00
33155;BME280;19511;42.682;23.332;2023-04-23T09:18:03;95053.28;;;14.76;100.00
33155;BME280;19511;42.682;23.332;2023-04-23T09:20:28;95131.25;;;15.47;100.00
33155;BME280;19511;42.682;23.332;2023-04-23T09:22:54;95122.78;;;15.51;100.00
33155;BME280;19511;42.682;23.332;2023-04-23T09:25:20;95130.19;;;15.28;100.00
33155;BME280;19511;42.682;23.332;2023-04-23T09:27:47;95128.56;;;15.44;100.00
33155;BME280;19511;42.682;23.332;2023-04-23T09:30:13;95039.63;;;14.94;100.00
33155;BME280;19511;42.682;23.332;2023-04-23T09:32:40;95103.38;;;15.60;100.00
33155;BME280;19511;42.682;23.332;2023-04-23T09:35:08;95040.81;;;15.23;100.00
33155;BME280;19511;42.682;23.332;2023-04-23T09:37:34;95037.44;;;15.02;100.00
33155;BME280;19511;42.682;23.332;2023-04-23T09:40:07;95110.22;;;15.59;100.00
33155;BME280;19511;42.682;23.332;2023-04-23T09:42:33;95101.38;;;15.48;100.00
33155;BME280;19511;42.682;23.332;2023-04-23T09:45:07;95100.03;;;15.65;100.00
33155;BME280;19511;42.682;23.332;2023-04-23T09:47:34;95099.94;;;15.69;100.00
33155;BME280;19511;42.682;23.332;2023-04-23T09:50:02;95097.72;;;15.77;100.00
33155;BME280;19511;42.682;23.332;2023-04-23T09:52:30;95080.00;;;15.71;100.00
33155;BME280;19511;42.682;23.332;2023-04-23T09:55:00;95088.34;;;15.58;100.00
33155;BME280;19511;42.682;23.332;2023-04-23T09:57:26;94949.09;;;14.60;100.00
33155;BME280;19511;42.682;23.332;2023-04-23T09:59:55;95094.59;;;15.75;100.00
33155;BME280;19511;42.682;23.332;2023-04-23T10:02:26;95086.91;;;16.05;100.00
33155;BME280;19511;42.682;23.332;2023-04-23T10:04:53;94987.63;;;15.68;100.00
33155;BME280;19511;42.682;23.332;2023-04-23T10:07:22;95071.28;;;16.20;99.42
33155;BME280;19511;42.682;23.332;2023-04-23T10:09:48;95081.53;;;16.23;99.54
33155;BME280;19511;42.682;23.332;2023-04-23T10:12:14;95064.72;;;16.14;99.53
33155;BME280;19511;42.682;23.332;2023-04-23T10:14:40;95061.34;;;16.19;97.74
33155;BME280;19511;42.682;23.332;2023-04-23T10:17:09;95069.47;;;16.26;97.79
33155;BME280;19511;42.682;23.332;2023-04-23T10:19:36;95060.47;;;16.57;99.13
33155;BME280;19511;42.682;23.332;2023-04-23T10:22:07;95054.47;;;16.68;92.99
33155;BME280;19511;42.682;23.332;2023-04-23T10:24:39;95054.75;;;16.61;94.04
33155;BME280;19511;42.682;23.332;2023-04-23T10:27:10;95055.28;;;16.69;93.03
33155;BME280;19511;42.682;23.332;2023-04-23T10:29:37;95038.91;;;16.80;91.89
33155;BME280;19511;42.682;23.332;2023-04-23T10:32:04;95055.00;;;16.54;90.93
33155;BME280;19511;42.682;23.332;2023-04-23T10:34:31;95042.22;;;16.65;91.85
33155;BME280;19511;42.682;23.332;2023-04-23T10:36:58;95041.91;;;16.63;92.66
33155;BME280;19511;42.682;23.332;2023-04-23T10:39:26;95028.59;;;16.68;91.98
33155;BME280;19511;42.682;23.332;2023-04-23T10:41:53;95025.19;;;16.73;89.13
33155;BME280;19511;42.682;23.332;2023-04-23T10:44:19;94930.19;;;16.41;87.42
33155;BME280;19511;42.682;23.332;2023-04-23T10:46:52;95024.13;;;17.14;88.38
33155;BME280;19511;42.682;23.332;2023-04-23T10:49:21;95015.50;;;16.64;83.60
33155;BME280;19511;42.682;23.332;2023-04-23T10:51:47;95018.31;;;16.64;85.85
33155;BME280;19511;42.682;23.332;2023-04-23T10:54:16;95015.53;;;16.87;82.61
33155;BME280;19511;42.682;23.332;2023-04-23T10:56:43;95020.09;;;16.93;78.09
33155;BME280;19511;42.682;23.332;2023-04-23T10:59:19;95002.72;;;16.76;78.09
33155;BME280;19511;42.682;23.332;2023-04-23T11:01:51;94997.16;;;16.76;78.50
33155;BME280;19511;42.682;23.332;2023-04-23T11:04:24;95001.75;;;17.14;84.75
33155;BME280;19511;42.682;23.332;2023-04-23T11:06:54;95004.13;;;17.25;83.09
33155;BME280;19511;42.682;23.332;2023-04-23T11:09:39;95001.50;;;17.22;72.68
33155;BME280;19511;42.682;23.332;2023-04-23T11:14:51;94967.50;;;17.23;71.34
33155;BME280;19511;42.682;23.332;2023-04-23T11:17:19;94984.31;;;17.42;68.51
33155;BME280;19511;42.682;23.332;2023-04-23T11:25:11;94955.88;;;17.84;68.66
33155;BME280;19511;42.682;23.332;2023-04-23T11:27:44;94889.16;;;17.55;64.43
33155;BME280;19511;42.682;23.332;2023-04-23T11:32:36;94956.09;;;18.18;58.42
33155;BME280;19511;42.682;23.332;2023-04-23T11:35:02;94966.84;;;18.47;51.57
33155;BME280;19511;42.682;23.332;2023-04-23T11:37:29;94969.19;;;18.58;58.33
33155;BME280;19511;42.682;23.332;2023-04-23T11:40:05;94962.66;;;18.52;57.52
33155;BME280;19511;42.682;23.332;2023-04-23T11:42:40;94956.56;;;18.63;60.09
33155;BME280;19511;42.682;23.332;2023-04-23T11:45:19;94955.00;;;18.52;56.82
33155;BME280;19511;42.682;23.332;2023-04-23T11:47:46;94939.16;;;18.31;54.45
33155;BME280;19511;42.682;23.332;2023-04-23T11:50:20;94941.63;;;18.19;57.21
33155;BME280;19511;42.682;23.332;2023-04-23T11:52:47;94951.00;;;18.44;59.47
33155;BME280;19511;42.682;23.332;2023-04-23T11:55:13;94947.03;;;17.86;55.69
33155;BME280;19511;42.682;23.332;2023-04-23T11:57:46;94850.41;;;17.25;55.79
33155;BME280;19511;42.682;23.332;2023-04-23T12:00:24;94912.69;;;17.85;57.13
33155;BME280;19511;42.682;23.332;2023-04-23T12:05:19;94866.81;;;17.73;52.46
33155;BME280;19511;42.682;23.332;2023-04-23T12:07:49;94921.13;;;18.32;48.32
33155;BME280;19511;42.682;23.332;2023-04-23T12:10:17;94941.19;;;18.39;48.89
33155;BME280;19511;42.682;23.332;2023-04-23T12:12:43;94922.34;;;18.58;50.66
33155;BME280;19511;42.682;23.332;2023-04-23T12:15:09;94926.97;;;18.99;49.36
33155;BME280;19511;42.682;23.332;2023-04-23T12:17:34;94921.09;;;19.30;49.45
33155;BME280;19511;42.682;23.332;2023-04-23T12:20:03;94912.50;;;19.34;47.46
33155;BME280;19511;42.682;23.332;2023-04-23T12:22:31;94921.31;;;19.17;44.43
33155;BME280;19511;42.682;23.332;2023-04-23T12:24:56;94895.22;;;18.92;46.88
33155;BME280;19511;42.682;23.332;2023-04-23T12:27:22;94924.91;;;19.08;46.01
33155;BME280;19511;42.682;23.332;2023-04-23T12:29:48;94913.50;;;19.21;45.76
33155;BME280;19511;42.682;23.332;2023-04-23T12:32:24;94913.13;;;19.29;46.01
33155;BME280;19511;42.682;23.332;2023-04-23T12:34:54;94840.41;;;18.82;46.41
33155;BME280;19511;42.682;23.332;2023-04-23T12:37:24;94905.75;;;19.07;46.39
33155;BME280;19511;42.682;23.332;2023-04-23T12:39:51;94892.59;;;18.61;45.90
33155;BME280;19511;42.682;23.332;2023-04-23T12:42:17;94898.06;;;18.55;48.44
33155;BME280;19511;42.682;23.332;2023-04-23T12:44:43;94917.06;;;18.51;49.53
33155;BME280;19511;42.682;23.332;2023-04-23T12:47:09;94812.91;;;17.73;48.43
33155;BME280;19511;42.682;23.332;2023-04-23T12:49:44;94900.44;;;18.10;49.97
33155;BME280;19511;42.682;23.332;2023-04-23T12:52:10;94908.97;;;17.98;50.82
33155;BME280;19511;42.682;23.332;2023-04-23T12:54:38;94914.56;;;17.98;50.80
33155;BME280;19511;42.682;23.332;2023-04-23T12:57:09;94911.75;;;17.88;50.90
33155;BME280;19511;42.682;23.332;2023-04-23T12:59:35;94912.38;;;17.92;50.33